createdAt,value
2022-10-29T00:00:32.293Z,18.36
2022-10-29T00:01:32.389Z,18.42
2022-10-29T00:02:32.407Z,18.37
2022-10-29T00:03:32.367Z,18.37
2022-10-29T00:04:32.409Z,18.33
2022-10-29T00:05:32.425Z,18.33
2022-10-29T00:06:32.454Z,18.33
2022-10-29T00:07:32.479Z,18.35
2022-10-29T00:08:32.503Z,18.29
2022-10-29T00:09:32.532Z,18.35
2022-10-29T00:10:32.559Z,18.37
2022-10-29T00:11:32.588Z,18.35
2022-10-29T00:12:32.615Z,18.36
2022-10-29T00:13:32.642Z,18.35
2022-10-29T00:14:32.670Z,18.39
2022-10-29T00:15:32.694Z,18.32
2022-10-29T00:16:32.720Z,18.26
2022-10-29T00:17:32.751Z,18.25
2022-10-29T00:18:32.773Z,18.21
2022-10-29T00:19:32.804Z,18.25
2022-10-29T00:20:32.833Z,18.20
2022-10-29T00:21:32.860Z,18.23
2022-10-29T00:22:32.884Z,18.21
2022-10-29T00:23:32.911Z,18.20
2022-10-29T00:24:32.936Z,18.21
2022-10-29T00:25:32.967Z,18.29
2022-10-29T00:26:32.993Z,18.26
2022-10-29T00:27:33.017Z,18.23
2022-10-29T00:28:33.044Z,18.17
2022-10-29T00:29:33.079Z,18.11
2022-10-29T00:30:33.097Z,18.12
2022-10-29T00:31:33.154Z,18.15
2022-10-29T00:32:33.154Z,18.12
2022-10-29T00:33:33.178Z,18.14
2022-10-29T00:34:33.204Z,18.23
2022-10-29T00:35:33.234Z,18.07
2022-10-29T00:36:33.259Z,18.08
2022-10-29T00:37:33.286Z,18.08
2022-10-29T00:38:33.314Z,18.07
2022-10-29T00:39:33.341Z,18.11
2022-10-29T00:40:33.374Z,18.10
2022-10-29T00:41:33.397Z,18.11
2022-10-29T00:42:33.419Z,18.10
2022-10-29T00:43:33.447Z,18.10
2022-10-29T00:44:33.473Z,18.14
2022-10-29T00:45:33.502Z,18.10
2022-10-29T00:46:33.592Z,18.10
2022-10-29T00:47:33.557Z,18.03
2022-10-29T00:48:33.581Z,18.08
2022-10-29T00:49:33.610Z,18.10
2022-10-29T00:50:33.640Z,18.18
2022-10-29T00:51:33.663Z,18.02
2022-10-29T00:52:33.699Z,18.14
2022-10-29T00:53:33.718Z,18.08
2022-10-29T00:54:33.743Z,18.02
2022-10-29T00:55:33.775Z,18.08
2022-10-29T00:56:33.799Z,18.08
2022-10-29T00:57:33.829Z,18.08
2022-10-29T00:58:33.849Z,18.02
2022-10-29T00:59:33.883Z,18.07
2022-10-29T01:00:33.903Z,18.11
2022-10-29T01:01:34.052Z,18.08
2022-10-29T01:02:34.076Z,18.07
2022-10-29T01:03:33.988Z,18.07
2022-10-29T01:04:34.016Z,18.07
2022-10-29T01:05:34.041Z,17.99
2022-10-29T01:06:34.066Z,18.08
2022-10-29T01:07:34.094Z,17.92
2022-10-29T01:08:34.127Z,17.89
2022-10-29T01:09:34.146Z,17.97
2022-10-29T01:10:34.174Z,18.00
2022-10-29T01:11:34.203Z,17.99
2022-10-29T01:12:34.229Z,18.00
2022-10-29T01:13:34.261Z,17.95
2022-10-29T01:14:34.281Z,17.95
2022-10-29T01:15:34.316Z,17.89
2022-10-29T01:16:34.334Z,17.95
2022-10-29T01:17:34.359Z,17.89
2022-10-29T01:18:34.424Z,17.89
2022-10-29T01:19:34.413Z,17.87
2022-10-29T01:20:34.442Z,17.92
2022-10-29T01:21:34.469Z,17.82
2022-10-29T01:22:34.496Z,17.86
2022-10-29T01:23:34.526Z,17.77
2022-10-29T01:24:34.552Z,17.74
2022-10-29T01:25:34.573Z,17.74
2022-10-29T01:26:34.601Z,17.78
2022-10-29T01:27:34.629Z,17.70
2022-10-29T01:28:34.654Z,17.79
2022-10-29T01:29:34.685Z,17.75
2022-10-29T01:30:34.710Z,17.74
2022-10-29T01:31:34.740Z,17.77
2022-10-29T01:32:34.759Z,17.75
2022-10-29T01:33:34.792Z,17.72
2022-10-29T01:34:34.814Z,17.66
2022-10-29T01:35:34.841Z,17.64
2022-10-29T01:36:34.870Z,17.64
2022-10-29T01:37:34.899Z,17.72
2022-10-29T01:38:34.923Z,17.66
2022-10-29T01:39:34.949Z,17.72
2022-10-29T01:40:34.997Z,17.63
2022-10-29T01:41:35.005Z,17.62
2022-10-29T01:42:35.028Z,17.51
2022-10-29T01:43:35.054Z,17.64
2022-10-29T01:44:35.080Z,17.55
2022-10-29T01:45:35.107Z,17.54
2022-10-29T01:46:35.135Z,17.58
2022-10-29T01:47:35.161Z,17.55
2022-10-29T01:48:35.187Z,17.54
2022-10-29T01:49:35.216Z,17.48
2022-10-29T01:50:35.244Z,17.44
2022-10-29T01:51:35.268Z,17.41
2022-10-29T01:52:35.295Z,17.55
2022-10-29T01:53:35.322Z,17.44
2022-10-29T01:54:35.349Z,17.51
2022-10-29T01:55:35.420Z,17.49
2022-10-29T01:56:35.402Z,17.43
2022-10-29T01:57:35.427Z,17.51
2022-10-29T01:58:35.474Z,17.49
2022-10-29T01:59:43.211Z,17.44
2022-10-29T02:00:35.538Z,17.40
2022-10-29T02:01:35.621Z,17.44
2022-10-29T02:02:35.554Z,17.49
2022-10-29T02:03:35.583Z,17.44
2022-10-29T02:04:35.612Z,17.44
2022-10-29T02:05:35.640Z,17.46
2022-10-29T02:06:35.662Z,17.43
2022-10-29T02:07:35.689Z,17.44
2022-10-29T02:08:35.719Z,17.40
2022-10-29T02:09:35.745Z,17.51
2022-10-29T02:10:35.772Z,17.37
2022-10-29T02:11:35.806Z,17.40
2022-10-29T02:12:35.821Z,17.43
2022-10-29T02:13:35.853Z,17.41
2022-10-29T02:14:35.872Z,17.40
2022-10-29T02:15:35.901Z,17.40
2022-10-29T02:16:35.929Z,17.33
2022-10-29T02:17:35.959Z,17.23
2022-10-29T02:18:35.978Z,17.25
2022-10-29T02:19:36.005Z,17.23
2022-10-29T02:20:36.036Z,17.25
2022-10-29T02:21:36.058Z,17.08
2022-10-29T02:22:36.086Z,17.22
2022-10-29T02:23:36.109Z,17.11
2022-10-29T02:24:36.142Z,17.06
2022-10-29T02:25:36.223Z,17.11
2022-10-29T02:26:36.188Z,16.97
2022-10-29T02:27:36.216Z,17.03
2022-10-29T02:28:36.248Z,16.96
2022-10-29T02:29:36.270Z,17.04
2022-10-29T02:30:36.301Z,17.08
2022-10-29T02:31:36.329Z,16.98
2022-10-29T02:32:36.359Z,16.93
2022-10-29T02:33:36.377Z,16.93
2022-10-29T02:34:36.400Z,16.89
2022-10-29T02:35:36.440Z,16.83
2022-10-29T02:36:36.454Z,16.83
2022-10-29T02:37:36.477Z,16.88
2022-10-29T02:38:36.503Z,16.82
2022-10-29T02:39:36.531Z,16.96
2022-10-29T02:40:36.558Z,16.82
2022-10-29T02:41:36.585Z,16.82
2022-10-29T02:42:36.607Z,16.88
2022-10-29T02:43:36.634Z,16.85
2022-10-29T02:44:36.664Z,16.85
2022-10-29T02:45:36.684Z,16.85
2022-10-29T02:46:36.714Z,16.81
2022-10-29T02:47:36.737Z,16.83
2022-10-29T02:48:36.766Z,16.82
2022-10-29T02:49:36.791Z,16.82
2022-10-29T02:50:36.815Z,16.79
2022-10-29T02:51:36.841Z,16.76
2022-10-29T02:52:36.869Z,16.70
2022-10-29T02:53:36.894Z,16.66
2022-10-29T02:54:36.918Z,16.71
2022-10-29T02:55:36.951Z,16.63
2022-10-29T02:56:36.972Z,16.61
2022-10-29T02:57:37.002Z,16.60
2022-10-29T02:58:37.028Z,16.60
2022-10-29T02:59:37.055Z,16.58
2022-10-29T03:00:37.081Z,16.50
2022-10-29T03:01:37.256Z,16.64
2022-10-29T03:02:37.243Z,16.52
2022-10-29T03:03:37.156Z,16.58
2022-10-29T03:04:37.178Z,16.61
2022-10-29T03:05:37.208Z,16.49
2022-10-29T03:06:37.230Z,16.46
2022-10-29T03:07:37.260Z,16.57
2022-10-29T03:08:37.285Z,16.43
2022-10-29T03:09:37.312Z,16.42
2022-10-29T03:10:37.337Z,16.41
2022-10-29T03:11:37.361Z,16.43
2022-10-29T03:12:37.385Z,16.41
2022-10-29T03:14:37.439Z,16.38
2022-10-29T03:15:37.471Z,16.30
2022-10-29T03:16:37.493Z,16.35
2022-10-29T03:17:37.522Z,16.31
2022-10-29T03:18:37.537Z,16.35
2022-10-29T03:19:37.565Z,16.38
2022-10-29T03:20:37.594Z,16.33
2022-10-29T03:21:37.621Z,16.38
2022-10-29T03:22:37.642Z,16.38
2022-10-29T03:23:37.696Z,16.31
2022-10-29T03:24:37.694Z,16.21
2022-10-29T03:25:37.723Z,16.27
2022-10-29T03:26:37.749Z,16.21
2022-10-29T03:27:37.775Z,16.21
2022-10-29T03:28:37.867Z,16.15
2022-10-29T03:29:37.824Z,16.21
2022-10-29T03:30:37.858Z,16.24
2022-10-29T03:31:37.874Z,16.35
2022-10-29T03:32:37.906Z,16.24
2022-10-29T03:33:37.925Z,16.31
2022-10-29T03:34:37.952Z,16.24
2022-10-29T03:35:38.028Z,16.24
2022-10-29T03:36:38.008Z,16.21
2022-10-29T03:37:38.032Z,16.15
2022-10-29T03:38:38.055Z,16.23
2022-10-29T03:39:38.085Z,16.23
2022-10-29T03:40:38.105Z,16.20
2022-10-29T03:41:38.135Z,16.20
2022-10-29T03:42:38.157Z,16.20
2022-10-29T03:43:38.181Z,16.24
2022-10-29T03:44:38.214Z,16.23
2022-10-29T03:45:38.237Z,16.21
2022-10-29T03:46:38.260Z,16.21
2022-10-29T03:47:38.283Z,16.34
2022-10-29T03:48:38.313Z,16.24
2022-10-29T03:49:38.339Z,16.33
2022-10-29T03:50:38.364Z,16.34
2022-10-29T03:51:38.391Z,16.27
2022-10-29T03:52:38.419Z,16.24
2022-10-29T03:53:38.443Z,16.34
2022-10-29T03:54:38.465Z,16.38
2022-10-29T03:55:38.489Z,16.38
2022-10-29T03:56:38.520Z,16.35
2022-10-29T03:57:38.542Z,16.34
2022-10-29T03:58:38.567Z,16.33
2022-10-29T03:59:38.596Z,16.39
2022-10-29T04:00:38.624Z,16.38
2022-10-29T04:01:38.745Z,16.30
2022-10-29T04:02:38.887Z,16.28
2022-10-29T04:03:38.697Z,16.31
2022-10-29T04:04:38.727Z,16.34
2022-10-29T04:05:38.749Z,16.28
2022-10-29T04:06:38.774Z,16.30
2022-10-29T04:07:38.802Z,16.12
2022-10-29T04:08:38.830Z,16.24
2022-10-29T04:09:38.848Z,16.23
2022-10-29T04:10:38.880Z,16.21
2022-10-29T04:11:38.903Z,16.21
2022-10-29T04:12:38.933Z,16.24
2022-10-29T04:13:38.955Z,16.25
2022-10-29T04:14:44.465Z,16.20
2022-10-29T04:15:39.002Z,16.24
2022-10-29T04:16:39.031Z,16.20
2022-10-29T04:17:39.052Z,16.21
2022-10-29T04:18:39.084Z,16.12
2022-10-29T04:19:39.103Z,16.09
2022-10-29T04:20:47.693Z,16.11
2022-10-29T04:27:31.342Z,15.93
2022-10-29T04:28:43.759Z,15.86
2022-10-29T04:29:39.363Z,15.80
2022-10-29T04:30:39.388Z,15.78
2022-10-29T04:31:39.418Z,15.75
2022-10-29T04:32:39.437Z,15.69
2022-10-29T04:33:39.467Z,15.78
2022-10-29T04:34:39.487Z,15.74
2022-10-29T04:35:39.521Z,15.71
2022-10-29T04:36:39.564Z,15.71
2022-10-29T04:37:39.566Z,15.72
2022-10-29T04:38:39.586Z,15.74
2022-10-29T04:39:39.611Z,15.74
2022-10-29T04:40:39.641Z,15.65
2022-10-29T04:41:39.667Z,15.71
2022-10-29T04:42:39.690Z,15.65
2022-10-29T04:43:39.721Z,15.72
2022-10-29T04:44:39.766Z,15.65
2022-10-29T04:45:39.845Z,15.69
2022-10-29T04:46:39.791Z,15.65
2022-10-29T04:47:39.834Z,15.80
2022-10-29T04:48:39.899Z,15.65
2022-10-29T04:49:39.870Z,15.75
2022-10-29T04:50:39.895Z,15.72
2022-10-29T04:51:47.084Z,15.68
2022-10-29T04:53:44.411Z,15.68
2022-10-29T04:54:43.955Z,15.60
2022-10-29T04:56:47.973Z,15.62
2022-10-29T04:57:47.995Z,15.57
2022-10-29T04:59:52.491Z,15.62
2022-10-29T05:00:52.117Z,15.59
2022-10-29T05:02:44.973Z,15.69
2022-10-29T05:03:44.989Z,15.65
2022-10-29T05:05:49.484Z,15.67
2022-10-29T05:06:49.026Z,15.57
2022-10-29T05:08:53.045Z,15.54
2022-10-29T05:09:53.059Z,15.59
2022-10-29T05:11:57.551Z,15.60
2022-10-29T05:12:57.357Z,15.59
2022-10-29T05:15:01.104Z,15.57
2022-10-29T05:16:01.128Z,15.49
2022-10-29T05:18:05.618Z,15.46
2022-10-29T05:19:05.153Z,15.50
2022-10-29T05:21:09.175Z,15.53
2022-10-29T05:22:09.192Z,15.53
2022-10-29T05:24:13.679Z,15.59
2022-10-29T05:25:13.225Z,15.67
2022-10-29T05:27:17.248Z,15.69
2022-10-29T05:28:17.263Z,15.72
2022-10-29T05:30:22.265Z,15.72
2022-10-29T05:31:21.790Z,15.64
2022-10-29T05:32:21.813Z,15.59
2022-10-29T05:33:21.844Z,15.53
2022-10-29T05:34:21.873Z,15.59
2022-10-29T05:35:21.886Z,15.62
2022-10-29T05:36:21.912Z,15.60
2022-10-29T05:37:21.939Z,15.60
2022-10-29T05:38:21.960Z,15.67
2022-10-29T05:39:21.989Z,15.57
2022-10-29T05:40:22.011Z,15.59
2022-10-29T05:41:22.035Z,15.54
2022-10-29T05:42:22.065Z,15.60
2022-10-29T05:43:22.090Z,15.53
2022-10-29T05:44:22.114Z,15.50
2022-10-29T05:45:22.141Z,15.56
2022-10-29T05:46:22.165Z,15.38
2022-10-29T05:47:22.185Z,15.47
2022-10-29T05:48:22.219Z,15.43
2022-10-29T05:49:22.237Z,15.56
2022-10-29T05:50:22.266Z,15.56
2022-10-29T05:51:22.290Z,15.56
2022-10-29T05:52:22.310Z,15.57
2022-10-29T05:53:22.337Z,15.51
2022-10-29T05:54:22.360Z,15.57
2022-10-29T05:55:22.386Z,15.39
2022-10-29T05:56:22.410Z,15.51
2022-10-29T05:57:22.436Z,15.49
2022-10-29T05:58:22.463Z,15.47
2022-10-29T05:59:22.486Z,15.38
2022-10-29T06:00:22.513Z,15.46
2022-10-29T06:01:22.570Z,15.39
2022-10-29T06:02:22.748Z,15.47
2022-10-29T06:03:22.586Z,15.44
2022-10-29T06:04:22.614Z,15.47
2022-10-29T06:05:22.631Z,15.50
2022-10-29T06:06:22.731Z,15.43
2022-10-29T06:07:22.685Z,15.44
2022-10-29T06:08:22.705Z,15.35
2022-10-29T06:09:22.735Z,15.47
2022-10-29T06:10:22.764Z,15.46
2022-10-29T06:11:22.781Z,15.44
2022-10-29T06:12:22.810Z,15.49
2022-10-29T06:13:22.831Z,15.47
2022-10-29T06:14:22.857Z,15.43
2022-10-29T06:15:22.893Z,15.44
2022-10-29T06:16:22.908Z,15.51
2022-10-29T06:17:22.933Z,15.41
2022-10-29T06:18:22.954Z,15.35
2022-10-29T06:19:22.978Z,15.36
2022-10-29T06:20:23.006Z,15.32
2022-10-29T06:21:23.031Z,15.34
2022-10-29T06:22:23.059Z,15.35
2022-10-29T06:23:23.081Z,15.36
2022-10-29T06:24:23.107Z,15.31
2022-10-29T06:25:23.132Z,15.36
2022-10-29T06:26:23.157Z,15.31
2022-10-29T06:27:23.180Z,15.35
2022-10-29T06:28:23.209Z,15.39
2022-10-29T06:29:23.235Z,15.41
2022-10-29T06:30:23.255Z,15.34
2022-10-29T06:31:23.278Z,15.46
2022-10-29T06:32:23.302Z,15.41
2022-10-29T06:33:23.327Z,15.36
2022-10-29T06:34:23.355Z,15.41
2022-10-29T06:35:23.464Z,15.44
2022-10-29T06:36:23.399Z,15.46
2022-10-29T06:37:23.427Z,15.39
2022-10-29T06:38:23.454Z,15.51
2022-10-29T06:39:23.479Z,15.56
2022-10-29T06:40:23.502Z,15.57
2022-10-29T06:41:23.530Z,15.62
2022-10-29T06:42:23.554Z,15.62
2022-10-29T06:43:23.579Z,15.59
2022-10-29T06:44:23.602Z,15.67
2022-10-29T06:45:23.628Z,15.68
2022-10-29T06:46:23.651Z,15.71
2022-10-29T06:47:23.675Z,15.67
2022-10-29T06:48:23.700Z,15.82
2022-10-29T06:49:23.723Z,15.75
2022-10-29T06:50:23.758Z,15.82
2022-10-29T06:52:23.832Z,15.75
2022-10-29T06:53:23.826Z,15.74
2022-10-29T06:54:23.850Z,15.84
2022-10-29T06:55:23.876Z,15.87
2022-10-29T06:56:23.904Z,15.90
2022-10-29T06:57:23.926Z,15.86
2022-10-29T06:58:23.952Z,15.87
2022-10-29T06:59:23.981Z,15.90
2022-10-29T07:00:24.005Z,15.84
2022-10-29T07:01:26.508Z,15.94
2022-10-29T07:02:24.054Z,15.97
2022-10-29T07:03:24.079Z,15.97
2022-10-29T07:04:24.103Z,16.00
2022-10-29T07:05:24.133Z,16.04
2022-10-29T07:06:24.155Z,16.01
2022-10-29T07:08:24.206Z,16.04
2022-10-29T07:09:24.228Z,16.00
2022-10-29T07:10:24.259Z,16.00
2022-10-29T07:11:24.280Z,16.00
2022-10-29T07:12:24.305Z,15.92
2022-10-29T07:13:24.334Z,15.94
2022-10-29T07:14:24.356Z,15.86
2022-10-29T07:15:27.506Z,16.01
2022-10-29T07:16:24.407Z,16.05
2022-10-29T07:17:24.430Z,16.02
2022-10-29T07:18:24.457Z,15.90
2022-10-29T07:19:24.483Z,15.97
2022-10-29T07:20:24.562Z,15.94
2022-10-29T07:21:24.534Z,15.93
2022-10-29T07:22:24.560Z,16.00
2022-10-29T07:23:24.638Z,16.04
2022-10-29T07:24:24.606Z,16.05
2022-10-29T07:25:24.633Z,16.09
2022-10-29T07:26:24.662Z,16.09
2022-10-29T07:27:24.761Z,16.07
2022-10-29T07:28:24.706Z,16.11
2022-10-29T07:29:24.740Z,16.21
2022-10-29T07:30:24.856Z,16.17
2022-10-29T07:31:24.785Z,16.21
2022-10-29T07:32:24.809Z,16.23
2022-10-29T07:33:24.841Z,16.24
2022-10-29T07:34:24.863Z,16.24
2022-10-29T07:35:24.887Z,16.31
2022-10-29T07:36:24.916Z,16.39
2022-10-29T07:37:24.941Z,16.38
2022-10-29T07:38:24.962Z,16.50
2022-10-29T07:39:25.035Z,16.46
2022-10-29T07:40:25.019Z,16.39
2022-10-29T07:41:25.041Z,16.49
2022-10-29T07:42:25.065Z,16.43
2022-10-29T07:43:25.094Z,16.43
2022-10-29T07:44:25.118Z,16.49
2022-10-29T07:45:25.145Z,16.28
2022-10-29T07:46:25.168Z,16.35
2022-10-29T07:47:25.194Z,16.39
2022-10-29T07:48:25.220Z,16.27
2022-10-29T07:49:25.251Z,16.35
2022-10-29T07:50:25.270Z,16.34
2022-10-29T07:51:25.300Z,16.35
2022-10-29T07:52:25.320Z,16.35
2022-10-29T07:53:25.346Z,16.33
2022-10-29T07:54:25.376Z,16.34
2022-10-29T07:55:25.475Z,16.34
2022-10-29T07:56:25.428Z,16.28
2022-10-29T07:57:25.447Z,16.33
2022-10-29T07:58:25.476Z,16.39
2022-10-29T07:59:25.506Z,16.42
2022-10-29T08:00:25.524Z,16.39
2022-10-29T08:01:25.690Z,16.52
2022-10-29T08:02:25.579Z,16.48
2022-10-29T08:03:25.603Z,16.58
2022-10-29T08:04:25.647Z,16.63
2022-10-29T08:05:25.658Z,16.76
2022-10-29T08:06:25.677Z,16.78
2022-10-29T08:07:25.704Z,16.83
2022-10-29T08:08:25.730Z,16.86
2022-10-29T08:09:25.757Z,16.86
2022-10-29T08:10:25.777Z,16.97
2022-10-29T08:11:25.809Z,17.04
2022-10-29T08:12:25.832Z,16.98
2022-10-29T08:13:25.857Z,17.07
2022-10-29T08:14:25.883Z,17.15
2022-10-29T08:15:25.913Z,17.18
2022-10-29T08:16:25.936Z,17.16
2022-10-29T08:17:25.963Z,17.26
2022-10-29T08:18:25.994Z,17.23
2022-10-29T08:19:26.013Z,17.26
2022-10-29T08:20:26.060Z,17.30
2022-10-29T08:21:26.068Z,17.31
2022-10-29T08:22:26.095Z,17.25
2022-10-29T08:23:26.120Z,17.41
2022-10-29T08:24:26.142Z,17.37
2022-10-29T08:25:26.170Z,17.48
2022-10-29T08:26:26.197Z,17.37
2022-10-29T08:27:26.226Z,17.37
2022-10-29T08:28:27.607Z,17.28
2022-10-29T08:29:26.277Z,17.26
2022-10-29T08:30:26.305Z,17.34
2022-10-29T08:31:26.329Z,17.40
2022-10-29T08:32:26.355Z,17.37
2022-10-29T08:33:26.383Z,17.34
2022-10-29T08:34:26.409Z,17.28
2022-10-29T08:35:26.436Z,17.36
2022-10-29T08:36:26.462Z,17.28
2022-10-29T08:37:26.486Z,17.33
2022-10-29T08:38:26.516Z,17.36
2022-10-29T08:39:26.543Z,17.31
2022-10-29T08:40:26.565Z,17.48
2022-10-29T08:41:26.594Z,17.51
2022-10-29T08:42:26.619Z,17.49
2022-10-29T08:43:26.643Z,17.63
2022-10-29T08:44:26.673Z,17.54
2022-10-29T08:45:26.715Z,17.71
2022-10-29T08:46:26.726Z,17.70
2022-10-29T08:47:26.755Z,17.74
2022-10-29T08:48:26.780Z,17.72
2022-10-29T08:49:26.804Z,17.71
2022-10-29T08:50:26.831Z,17.75
2022-10-29T08:51:26.859Z,17.81
2022-10-29T08:52:26.883Z,17.81
2022-10-29T08:53:30.048Z,17.84
2022-10-29T08:54:31.475Z,17.90
2022-10-29T08:55:26.969Z,17.95
2022-10-29T08:56:26.992Z,18.00
2022-10-29T08:57:27.015Z,18.14
2022-10-29T08:58:27.045Z,17.99
2022-10-29T08:59:27.073Z,18.26
2022-10-29T09:00:27.103Z,18.20
2022-10-29T09:01:27.237Z,18.36
2022-10-29T09:02:27.156Z,18.42
2022-10-29T09:03:27.185Z,18.48
2022-10-29T09:04:27.205Z,18.54
2022-10-29T09:05:27.235Z,18.66
2022-10-29T09:06:27.263Z,18.72
2022-10-29T09:07:27.303Z,18.55
2022-10-29T09:08:27.316Z,18.66
2022-10-29T09:09:27.357Z,18.73
2022-10-29T09:10:27.382Z,18.66
2022-10-29T09:11:27.404Z,18.70
2022-10-29T09:12:27.421Z,18.70
2022-10-29T09:13:27.454Z,18.87
2022-10-29T09:14:27.480Z,18.87
2022-10-29T09:15:27.514Z,18.91
2022-10-29T09:16:27.570Z,19.00
2022-10-29T09:17:27.560Z,19.14
2022-10-29T09:18:27.593Z,19.06
2022-10-29T09:19:27.618Z,19.08
2022-10-29T09:20:27.646Z,19.14
2022-10-29T09:21:27.677Z,19.21
2022-10-29T09:22:27.701Z,19.26
2022-10-29T09:23:27.731Z,19.26
2022-10-29T09:24:27.758Z,19.22
2022-10-29T09:25:27.889Z,19.25
2022-10-29T09:26:27.814Z,19.31
2022-10-29T09:27:27.865Z,19.32
2022-10-29T09:28:27.869Z,19.33
2022-10-29T09:29:27.899Z,19.39
2022-10-29T09:30:27.921Z,19.46
2022-10-29T09:31:27.951Z,19.54
2022-10-29T09:32:27.984Z,19.56
2022-10-29T09:33:28.008Z,19.56
2022-10-29T09:34:28.034Z,19.61
2022-10-29T09:35:28.103Z,19.61
2022-10-29T09:36:28.090Z,19.68
2022-10-29T09:37:28.117Z,19.81
2022-10-29T09:38:28.150Z,19.81
2022-10-29T09:39:33.804Z,19.88
2022-10-29T09:40:28.202Z,19.99
2022-10-29T09:41:28.231Z,19.91
2022-10-29T09:42:28.261Z,19.87
2022-10-29T09:43:28.288Z,19.96
2022-10-29T09:44:28.314Z,19.98
2022-10-29T09:45:28.341Z,19.91
2022-10-29T09:46:28.370Z,19.94
2022-10-29T09:47:28.398Z,20.01
2022-10-29T09:48:28.425Z,20.11
2022-10-29T09:49:28.456Z,20.24
2022-10-29T09:50:28.483Z,20.16
2022-10-29T09:51:28.514Z,20.14
2022-10-29T09:52:28.538Z,20.18
2022-10-29T09:53:28.570Z,20.23
2022-10-29T09:54:28.597Z,20.23
2022-10-29T09:55:28.621Z,20.16
2022-10-29T09:56:28.653Z,20.16
2022-10-29T09:57:28.683Z,20.28
2022-10-29T09:58:28.707Z,20.18
2022-10-29T09:59:28.738Z,20.24
2022-10-29T10:00:28.767Z,20.31
2022-10-29T10:01:28.832Z,20.31
2022-10-29T10:02:28.862Z,20.50
2022-10-29T10:03:28.858Z,20.43
2022-10-29T10:04:28.888Z,20.55
2022-10-29T10:05:28.908Z,20.64
2022-10-29T10:06:28.937Z,20.70
2022-10-29T10:07:28.971Z,20.77
2022-10-29T10:08:28.994Z,20.85
2022-10-29T10:09:29.023Z,20.92
2022-10-29T10:10:29.057Z,20.92
2022-10-29T10:11:29.083Z,20.99
2022-10-29T10:12:29.109Z,21.01
2022-10-29T10:13:29.146Z,20.95
2022-10-29T10:14:29.166Z,20.99
2022-10-29T10:15:29.197Z,20.98
2022-10-29T10:16:29.222Z,20.88
2022-10-29T10:17:29.254Z,20.84
2022-10-29T10:18:29.349Z,20.87
2022-10-29T10:19:29.309Z,20.84
2022-10-29T10:20:29.334Z,20.85
2022-10-29T10:21:29.368Z,20.70
2022-10-29T10:22:29.398Z,20.80
2022-10-29T10:23:29.427Z,20.87
2022-10-29T10:24:29.453Z,20.87
2022-10-29T10:25:29.540Z,20.89
2022-10-29T10:26:29.511Z,20.92
2022-10-29T10:27:29.550Z,20.91
2022-10-29T10:28:29.584Z,20.95
2022-10-29T10:29:29.593Z,20.97
2022-10-29T10:30:29.623Z,20.97
2022-10-29T10:31:29.654Z,20.95
2022-10-29T10:32:29.694Z,20.95
2022-10-29T10:33:29.714Z,20.94
2022-10-29T10:34:29.740Z,20.89
2022-10-29T10:35:29.771Z,21.03
2022-10-29T10:36:29.791Z,21.06
2022-10-29T10:37:29.823Z,21.09
2022-10-29T10:38:29.854Z,21.17
2022-10-29T10:39:29.881Z,21.25
2022-10-29T10:40:29.928Z,21.29
2022-10-29T10:41:29.958Z,21.25
2022-10-29T10:42:29.970Z,21.37
2022-10-29T10:43:29.993Z,21.31
2022-10-29T10:44:30.024Z,21.38
2022-10-29T10:45:30.074Z,21.54
2022-10-29T10:46:30.096Z,21.43
2022-10-29T10:47:30.110Z,21.43
2022-10-29T10:48:33.782Z,21.46
2022-10-29T10:49:30.172Z,21.61
2022-10-29T10:50:30.201Z,21.53
2022-10-29T10:51:30.228Z,21.56
2022-10-29T10:52:30.254Z,21.65
2022-10-29T10:53:30.290Z,21.80
2022-10-29T10:54:30.403Z,21.82
2022-10-29T10:55:30.348Z,21.88
2022-10-29T10:56:30.379Z,21.91
2022-10-29T10:57:30.406Z,21.82
2022-10-29T10:58:30.442Z,21.79
2022-10-29T10:59:30.465Z,21.84
2022-10-29T11:00:30.491Z,21.82
2022-10-29T11:01:30.605Z,21.92
2022-10-29T11:02:30.618Z,21.83
2022-10-29T11:03:30.587Z,21.83
2022-10-29T11:04:30.614Z,21.88
2022-10-29T11:05:30.640Z,21.90
2022-10-29T11:06:30.675Z,21.86
2022-10-29T11:07:30.699Z,21.98
2022-10-29T11:08:30.736Z,21.94
2022-10-29T11:09:30.756Z,21.92
2022-10-29T11:10:30.787Z,21.99
2022-10-29T11:11:30.813Z,21.99
2022-10-29T11:12:30.842Z,21.91
2022-10-29T11:13:30.873Z,21.94
2022-10-29T11:14:30.905Z,22.00
2022-10-29T11:15:30.932Z,22.05
2022-10-29T11:16:30.961Z,22.14
2022-10-29T11:17:30.991Z,22.09
2022-10-29T11:18:31.019Z,22.05
2022-10-29T11:19:34.161Z,21.99
2022-10-29T11:20:31.079Z,21.99
2022-10-29T11:21:31.110Z,22.02
2022-10-29T11:22:31.138Z,21.94
2022-10-29T11:23:31.169Z,21.94
2022-10-29T11:24:31.196Z,21.96
2022-10-29T11:25:31.227Z,22.00
2022-10-29T11:26:31.256Z,22.05
2022-10-29T11:27:31.284Z,22.15
2022-10-29T11:28:31.317Z,22.12
2022-10-29T11:29:31.344Z,22.12
2022-10-29T11:30:31.392Z,22.15
2022-10-29T11:31:31.402Z,22.24
2022-10-29T11:32:31.429Z,22.27
2022-10-29T11:33:31.461Z,22.27
2022-10-29T11:34:31.494Z,22.33
2022-10-29T11:35:31.520Z,22.40
2022-10-29T11:36:31.553Z,22.45
2022-10-29T11:37:31.576Z,22.54
2022-10-29T11:38:31.611Z,22.64
2022-10-29T11:39:31.637Z,22.65
2022-10-29T11:40:31.669Z,22.65
2022-10-29T11:41:31.696Z,22.67
2022-10-29T11:42:31.727Z,22.58
2022-10-29T11:43:31.770Z,22.67
2022-10-29T11:44:31.793Z,22.80
2022-10-29T11:45:31.818Z,22.90
2022-10-29T11:46:31.851Z,23.02
2022-10-29T11:47:31.876Z,22.95
2022-10-29T11:48:31.908Z,23.01
2022-10-29T11:49:31.938Z,23.01
2022-10-29T11:50:31.963Z,23.09
2022-10-29T11:51:31.996Z,23.04
2022-10-29T11:52:35.501Z,23.13
2022-10-29T11:53:32.058Z,23.15
2022-10-29T11:54:32.087Z,23.22
2022-10-29T11:55:32.112Z,23.28
2022-10-29T11:56:32.153Z,23.19
2022-10-29T11:57:32.175Z,23.31
2022-10-29T11:58:36.590Z,23.40
2022-10-29T11:59:32.236Z,23.58
2022-10-29T12:00:32.274Z,23.51
2022-10-29T12:01:32.377Z,23.58
2022-10-29T12:02:32.328Z,23.68
2022-10-29T12:03:32.442Z,23.63
2022-10-29T12:04:32.384Z,23.68
2022-10-29T12:05:32.418Z,23.70
2022-10-29T12:06:32.456Z,23.78
2022-10-29T12:07:32.486Z,23.87
2022-10-29T12:08:32.511Z,23.91
2022-10-29T12:09:32.546Z,23.90
2022-10-29T12:10:39.738Z,23.94
2022-10-29T12:12:37.069Z,24.12
2022-10-29T12:13:36.638Z,24.12
2022-10-29T12:15:41.157Z,24.22
2022-10-29T12:16:41.178Z,24.34
2022-10-29T12:17:41.279Z,24.34
2022-10-29T12:18:41.238Z,24.45
2022-10-29T12:19:41.267Z,24.43
2022-10-29T12:20:41.303Z,24.52
2022-10-29T12:21:41.334Z,24.57
2022-10-29T12:22:41.365Z,24.65
2022-10-29T12:23:41.395Z,24.65
2022-10-29T12:24:41.422Z,24.65
2022-10-29T12:25:41.455Z,24.73
2022-10-29T12:26:41.485Z,24.77
2022-10-29T12:27:41.514Z,24.81
2022-10-29T12:28:41.542Z,24.78
2022-10-29T12:29:41.580Z,24.90
2022-10-29T12:30:41.609Z,24.87
2022-10-29T12:31:41.644Z,25.00
2022-10-29T12:32:41.688Z,25.00
2022-10-29T12:33:41.706Z,24.99
2022-10-29T12:34:41.738Z,24.96
2022-10-29T12:35:41.772Z,24.95
2022-10-29T12:36:41.796Z,24.90
2022-10-29T12:37:41.829Z,24.90
2022-10-29T12:38:41.863Z,24.83
2022-10-29T12:39:41.894Z,24.81
2022-10-29T12:40:41.924Z,24.85
2022-10-29T12:41:41.961Z,24.83
2022-10-29T12:42:41.986Z,24.77
2022-10-29T12:43:42.026Z,24.85
2022-10-29T12:44:45.106Z,24.91
2022-10-29T12:45:59.579Z,24.91
2022-10-29T12:46:42.110Z,24.83
2022-10-29T12:47:42.146Z,24.91
2022-10-29T12:48:42.187Z,24.88
2022-10-29T12:49:42.206Z,24.90
2022-10-29T12:50:42.239Z,24.78
2022-10-29T12:51:42.372Z,24.88
2022-10-29T12:52:42.303Z,24.78
2022-10-29T12:53:42.332Z,24.83
2022-10-29T12:54:42.366Z,24.95
2022-10-29T12:55:42.393Z,24.88
2022-10-29T12:56:45.069Z,24.85
2022-10-29T12:57:42.470Z,24.95
2022-10-29T12:58:42.487Z,24.88
2022-10-29T12:59:42.518Z,24.93
2022-10-29T13:00:42.550Z,24.90
2022-10-29T13:02:11.084Z,25.03
2022-10-29T13:02:42.672Z,25.05
2022-10-29T13:03:42.642Z,25.05
2022-10-29T13:04:42.673Z,25.03
2022-10-29T13:05:42.710Z,24.91
2022-10-29T13:06:42.735Z,24.95
2022-10-29T13:07:42.766Z,24.83
2022-10-29T13:08:42.801Z,24.88
2022-10-29T13:09:47.306Z,24.85
2022-10-29T13:10:42.857Z,24.84
2022-10-29T13:11:42.894Z,24.85
2022-10-29T13:12:42.923Z,24.76
2022-10-29T13:13:42.990Z,24.69
2022-10-29T13:14:42.982Z,24.67
2022-10-29T13:15:43.017Z,24.68
2022-10-29T13:16:43.046Z,24.78
2022-10-29T13:17:43.083Z,24.68